KCGS

Details ICAO KCGS
Name College Park
Region United States
Timezone America/New_York (UTC-5.0)
Plans Departing 1
Arriving 3
Stats Elevation 48 ft / 15 m (AMSL)
Location 38.980587° -76.922293°
Runways 1
Magnetic Variation 10.917° W
Sunrise 2017-12-15 12:20:54 UTC / 2017-12-15 07:20:54 Local
Sunset 2017-12-15 21:47:46 UTC / 2017-12-15 16:47:46 Local
Advertisement - Login to hide

Runways

ID Width Length Bearing (true) Bearing (mag) Surface Threshold Offset Overrun Length
15 60 ft / 18 m 2,608 ft / 795 m 138.44° 149.36° Asphalt 416 ft / 127 m 0 ft / 0 m
33 60 ft / 18 m 2,608 ft / 795 m 318.44° 329.36° Asphalt 201 ft / 61 m 0 ft / 0 m

Map

Weather


0- 5 10 15 20 25 30 35+ Temperature / ° C

Clouds and Precipitation
Forecast for 2017-12-15 06:00 UTC. Updated 2 hours ago

Ground ~20,000 ft ~40,000 ft Winds

METAR

KCGS 150646Z AUTO 00000KT 10SM CLR M02/M13 A3013 RMK AO1 T10221126

TAF

Not found

Frequencies

Recorded 121.22 MHz AWOS 3
Approach 119.85 MHz POTOMAC APP/DEP
Unicom 122.97 MHz CTAF/UNICOM
Warning: Do not use this data for real-world aviation or navigation. No guarantee of current accuracy is given.